createdAt,value
2022-08-01T00:00:06.542Z,100043.00
2022-08-01T00:02:55.993Z,100039.00
2022-08-01T00:05:54.678Z,100034.00
2022-08-01T00:08:44.689Z,100048.00
2022-08-01T00:11:37.626Z,100045.00
2022-08-01T00:14:41.661Z,100033.00
2022-08-01T00:17:28.960Z,100038.00
2022-08-01T00:20:19.469Z,100029.00
2022-08-01T00:23:21.272Z,100032.00
2022-08-01T00:25:55.438Z,100043.00
2022-08-01T00:31:43.799Z,100029.00
2022-08-01T00:34:34.760Z,100028.00
2022-08-01T00:37:15.583Z,100027.00
2022-08-01T00:40:00.255Z,100030.00
2022-08-01T00:42:52.483Z,100037.00
2022-08-01T00:45:50.866Z,100026.00
2022-08-01T00:48:46.306Z,100032.00
2022-08-01T00:51:27.873Z,100024.00
2022-08-01T00:54:05.628Z,100028.00
2022-08-01T00:56:59.233Z,100028.00
2022-08-01T01:02:43.351Z,100027.00
2022-08-01T01:05:54.205Z,100032.00
2022-08-01T01:08:40.606Z,100025.00
2022-08-01T01:11:31.341Z,100019.00
2022-08-01T01:14:12.575Z,100013.00
2022-08-01T01:16:55.501Z,100019.00
2022-08-01T01:19:37.640Z,100015.00
2022-08-01T01:23:05.124Z,100011.00
2022-08-01T01:26:03.148Z,100015.00
2022-08-01T01:29:04.069Z,100011.00
2022-08-01T01:32:03.430Z,100023.00
2022-08-01T01:34:56.599Z,100009.00
2022-08-01T01:37:53.720Z,100013.00
2022-08-01T01:40:41.619Z,100014.00
2022-08-01T01:43:33.370Z,100018.00
2022-08-01T01:46:13.887Z,100015.00
2022-08-01T01:49:08.361Z,100020.00
2022-08-01T01:52:03.302Z,100008.00
2022-08-01T01:54:50.277Z,100013.00
2022-08-01T01:57:34.469Z,100008.00
2022-08-01T02:00:28.149Z,100010.00
2022-08-01T02:03:19.037Z,100013.00
2022-08-01T02:06:32.790Z,100006.00
2022-08-01T02:12:29.242Z,100018.00
2022-08-01T02:15:05.895Z,100021.00
2022-08-01T02:17:57.944Z,100029.00
2022-08-01T02:20:46.912Z,100028.00
2022-08-01T02:23:54.076Z,100027.00
2022-08-01T02:26:40.027Z,100026.00
2022-08-01T02:29:33.199Z,100026.00
2022-08-01T02:32:14.678Z,100025.00
2022-08-01T02:34:56.293Z,100031.00
2022-08-01T02:37:36.577Z,100039.00
2022-08-01T02:40:21.990Z,100023.00
2022-08-01T02:42:55.902Z,100021.00
2022-08-01T02:45:30.145Z,100024.00
2022-08-01T02:48:05.043Z,100025.00
2022-08-01T02:50:36.160Z,100014.00
2022-08-01T02:53:06.399Z,100016.00
2022-08-01T02:55:37.600Z,100017.00
2022-08-01T02:58:06.788Z,100018.00
2022-08-01T03:00:36.763Z,100015.00
2022-08-01T03:03:09.059Z,100013.00
2022-08-01T03:05:41.018Z,100023.00
2022-08-01T03:08:14.710Z,100016.00
2022-08-01T03:10:48.331Z,100013.00
2022-08-01T03:13:20.051Z,100022.00
2022-08-01T03:15:50.462Z,100022.00
2022-08-01T03:18:23.676Z,100025.00
2022-08-01T03:20:54.603Z,100023.00
2022-08-01T03:23:38.135Z,100016.00
2022-08-01T03:26:10.693Z,100021.00
2022-08-01T03:28:39.681Z,100026.00
2022-08-01T03:31:09.635Z,100036.00
2022-08-01T03:33:39.070Z,100031.00
2022-08-01T03:36:11.935Z,100032.00
2022-08-01T03:38:42.986Z,100036.00
2022-08-01T03:41:18.669Z,100031.00
2022-08-01T03:43:54.704Z,100034.00
2022-08-01T03:46:32.401Z,100025.00
2022-08-01T03:49:06.373Z,100025.00
2022-08-01T03:51:36.998Z,100033.00
2022-08-01T03:54:08.205Z,100032.00
2022-08-01T03:56:40.716Z,100034.00
2022-08-01T03:59:11.344Z,100027.00
2022-08-01T04:01:41.361Z,100031.00
2022-08-01T04:04:10.612Z,100031.00
2022-08-01T04:06:41.197Z,100036.00
2022-08-01T04:09:13.601Z,100042.00
2022-08-01T04:11:44.208Z,100038.00
2022-08-01T04:14:13.638Z,100035.00
2022-08-01T04:16:42.693Z,100051.00
2022-08-01T04:19:11.699Z,100046.00
2022-08-01T04:21:41.460Z,100048.00
2022-08-01T04:24:14.521Z,100047.00
2022-08-01T04:26:47.967Z,100055.00
2022-08-01T04:29:20.218Z,100061.00
2022-08-01T04:31:51.199Z,100059.00
2022-08-01T04:34:24.078Z,100064.00
2022-08-01T04:36:57.168Z,100069.00
2022-08-01T04:39:28.972Z,100068.00
2022-08-01T04:42:01.588Z,100079.00
2022-08-01T04:44:32.703Z,100067.00
2022-08-01T04:47:04.145Z,100077.00
2022-08-01T04:49:49.036Z,100081.00
2022-08-01T04:52:24.771Z,100079.00
2022-08-01T04:54:53.705Z,100085.00
2022-08-01T04:57:24.157Z,100081.00
2022-08-01T04:59:57.764Z,100078.00
2022-08-01T05:02:29.141Z,100081.00
2022-08-01T05:04:58.665Z,100082.00
2022-08-01T05:07:27.688Z,100086.00
2022-08-01T05:09:56.497Z,100080.00
2022-08-01T05:12:26.577Z,100086.00
2022-08-01T05:14:55.318Z,100089.00
2022-08-01T05:17:24.298Z,100092.00
2022-08-01T05:19:53.092Z,100089.00
2022-08-01T05:22:21.757Z,100092.00
2022-08-01T05:24:51.260Z,100093.00
2022-08-01T05:27:21.893Z,100089.00
2022-08-01T05:29:52.787Z,100091.00
2022-08-01T05:32:21.467Z,100086.00
2022-08-01T05:34:50.027Z,100092.00
2022-08-01T05:37:18.628Z,100087.00
2022-08-01T05:39:47.505Z,100095.00
2022-08-01T05:42:16.358Z,100091.00
2022-08-01T05:44:45.181Z,100095.00
2022-08-01T05:47:16.600Z,100102.00
2022-08-01T05:49:45.353Z,100095.00
2022-08-01T05:52:15.238Z,100094.00
2022-08-01T05:54:44.226Z,100097.00
2022-08-01T05:57:12.931Z,100094.00
2022-08-01T05:59:43.440Z,100099.00
2022-08-01T06:02:12.109Z,100116.00
2022-08-01T06:04:42.153Z,100123.00
2022-08-01T06:07:11.119Z,100128.00
2022-08-01T06:09:40.099Z,100128.00
2022-08-01T06:12:09.769Z,100127.00
2022-08-01T06:14:38.476Z,100137.00
2022-08-01T06:17:07.235Z,100135.00
2022-08-01T06:19:36.180Z,100138.00
2022-08-01T06:22:07.453Z,100137.00
2022-08-01T06:24:37.477Z,100137.00
2022-08-01T06:27:22.357Z,100136.00
2022-08-01T06:29:54.485Z,100146.00
2022-08-01T06:32:27.385Z,100134.00
2022-08-01T06:34:57.772Z,100145.00
2022-08-01T06:37:32.137Z,100148.00
2022-08-01T06:40:04.352Z,100148.00
2022-08-01T06:42:36.543Z,100141.00
2022-08-01T06:45:05.731Z,100150.00
2022-08-01T06:47:35.252Z,100150.00
2022-08-01T06:50:04.786Z,100154.00
2022-08-01T06:52:35.956Z,100154.00
2022-08-01T06:55:05.025Z,100146.00
2022-08-01T06:57:34.361Z,100149.00
2022-08-01T07:00:06.509Z,100147.00
2022-08-01T07:02:40.554Z,100145.00
2022-08-01T07:05:10.403Z,100146.00
2022-08-01T07:07:45.709Z,100158.00
2022-08-01T07:10:14.913Z,100150.00
2022-08-01T07:12:43.695Z,100154.00
2022-08-01T07:15:13.565Z,100154.00
2022-08-01T07:17:43.320Z,100149.00
2022-08-01T07:20:16.462Z,100157.00
2022-08-01T07:22:48.382Z,100155.00
2022-08-01T07:25:18.084Z,100150.00
2022-08-01T07:27:47.132Z,100156.00
2022-08-01T07:30:17.213Z,100160.00
2022-08-01T07:32:46.044Z,100158.00
2022-08-01T07:35:14.746Z,100149.00
2022-08-01T07:37:48.956Z,100157.00
2022-08-01T07:40:20.357Z,100150.00
2022-08-01T07:42:49.221Z,100153.00
2022-08-01T07:45:18.207Z,100143.00
2022-08-01T07:47:47.860Z,100145.00
2022-08-01T07:50:16.890Z,100143.00
2022-08-01T07:52:45.991Z,100140.00
2022-08-01T07:55:16.695Z,100146.00
2022-08-01T07:57:47.403Z,100148.00
2022-08-01T08:00:17.876Z,100145.00
2022-08-01T08:02:46.689Z,100149.00
2022-08-01T08:05:15.528Z,100148.00
2022-08-01T08:08:04.620Z,100148.00
2022-08-01T08:10:33.807Z,100152.00
2022-08-01T08:13:04.852Z,100152.00
2022-08-01T08:15:34.323Z,100159.00
2022-08-01T08:18:02.909Z,100154.00
2022-08-01T08:20:31.578Z,100155.00
2022-08-01T08:23:00.472Z,100152.00
2022-08-01T08:25:30.249Z,100152.00
2022-08-01T08:27:59.156Z,100153.00
2022-08-01T08:30:29.192Z,100150.00
2022-08-01T08:32:57.766Z,100146.00
2022-08-01T08:35:40.236Z,100149.00
2022-08-01T08:38:15.980Z,100142.00
2022-08-01T08:40:45.146Z,100145.00
2022-08-01T08:43:14.128Z,100147.00
2022-08-01T08:45:58.849Z,100160.00
2022-08-01T08:48:29.804Z,100150.00
2022-08-01T08:51:00.278Z,100160.00
2022-08-01T08:53:34.554Z,100156.00
2022-08-01T08:56:04.658Z,100162.00
2022-08-01T08:58:38.574Z,100156.00
2022-08-01T09:01:11.195Z,100154.00
2022-08-01T09:03:41.579Z,100160.00
2022-08-01T09:06:11.269Z,100165.00
2022-08-01T09:08:39.943Z,100162.00
2022-08-01T09:11:08.531Z,100162.00
2022-08-01T09:13:37.196Z,100159.00
2022-08-01T09:16:19.416Z,100169.00
2022-08-01T09:18:53.552Z,100168.00
2022-08-01T09:21:25.238Z,100160.00
2022-08-01T09:23:56.266Z,100163.00
2022-08-01T09:26:33.979Z,100161.00
2022-08-01T09:29:04.930Z,100160.00
2022-08-01T09:31:47.406Z,100170.00
2022-08-01T09:34:19.769Z,100167.00
2022-08-01T09:36:54.308Z,100171.00
2022-08-01T09:39:25.552Z,100170.00
2022-08-01T09:41:55.247Z,100176.00
2022-08-01T09:44:43.099Z,100174.00
2022-08-01T09:47:15.820Z,100179.00
2022-08-01T09:49:50.536Z,100179.00
2022-08-01T09:52:25.667Z,100185.00
2022-08-01T09:54:57.060Z,100188.00
2022-08-01T09:57:26.543Z,100191.00
2022-08-01T09:59:59.929Z,100192.00
2022-08-01T10:02:34.145Z,100197.00
2022-08-01T10:05:07.547Z,100196.00
2022-08-01T10:07:43.652Z,100195.00
2022-08-01T10:10:15.728Z,100193.00
2022-08-01T10:12:45.936Z,100188.00
2022-08-01T10:15:18.414Z,100188.00
2022-08-01T10:17:57.282Z,100200.00
2022-08-01T10:20:30.836Z,100197.00
2022-08-01T10:23:06.267Z,100193.00
2022-08-01T10:25:47.018Z,100192.00
2022-08-01T10:28:21.499Z,100180.00
2022-08-01T10:30:53.522Z,100184.00
2022-08-01T10:33:50.773Z,100184.00
2022-08-01T10:36:15.777Z,100176.00
2022-08-01T10:38:45.952Z,100179.00
2022-08-01T10:41:17.057Z,100186.00
2022-08-01T10:43:46.977Z,100172.00
2022-08-01T10:46:16.030Z,100180.00
2022-08-01T10:48:53.249Z,100178.00
2022-08-01T10:51:51.345Z,100179.00
2022-08-01T10:54:12.539Z,100180.00
2022-08-01T10:56:44.921Z,100196.00
2022-08-01T10:59:50.410Z,100191.00
2022-08-01T11:02:10.986Z,100190.00
2022-08-01T11:05:00.288Z,100188.00
2022-08-01T11:07:46.721Z,100185.00
2022-08-01T11:10:25.802Z,100199.00
2022-08-01T11:12:54.816Z,100207.00
2022-08-01T11:15:32.170Z,100204.00
2022-08-01T11:18:05.683Z,100203.00
2022-08-01T11:20:41.587Z,100194.00
2022-08-01T11:23:21.551Z,100193.00
2022-08-01T11:26:17.610Z,100196.00
2022-08-01T11:29:11.220Z,100193.00
2022-08-01T11:31:38.388Z,100196.00
2022-08-01T11:34:07.392Z,100194.00
2022-08-01T11:39:26.963Z,100185.00
2022-08-01T11:41:56.465Z,100189.00
2022-08-01T11:44:30.530Z,100189.00
2022-08-01T11:47:10.177Z,100194.00
2022-08-01T11:49:51.705Z,100193.00
2022-08-01T11:52:26.716Z,100195.00
2022-08-01T11:54:57.839Z,100190.00
2022-08-01T11:57:34.308Z,100195.00
2022-08-01T12:00:15.233Z,100200.00
2022-08-01T12:02:45.461Z,100188.00
2022-08-01T12:05:17.372Z,100183.00
2022-08-01T12:07:51.563Z,100186.00
2022-08-01T12:10:21.459Z,100183.00
2022-08-01T12:12:51.455Z,100182.00
2022-08-01T12:15:21.521Z,100192.00
2022-08-01T12:17:58.609Z,100197.00
2022-08-01T12:20:30.735Z,100196.00
2022-08-01T12:23:03.260Z,100196.00
2022-08-01T12:25:32.167Z,100202.00
2022-08-01T12:28:03.735Z,100201.00
2022-08-01T12:30:36.317Z,100206.00
2022-08-01T12:33:06.185Z,100208.00
2022-08-01T12:35:35.869Z,100206.00
2022-08-01T12:38:07.756Z,100220.00
2022-08-01T12:40:42.101Z,100205.00
2022-08-01T12:43:27.194Z,100197.00
2022-08-01T12:45:59.800Z,100192.00
2022-08-01T12:48:29.967Z,100189.00
2022-08-01T12:51:01.532Z,100187.00
2022-08-01T12:53:40.906Z,100198.00
2022-08-01T12:56:11.395Z,100182.00
2022-08-01T12:58:40.737Z,100195.00
2022-08-01T13:01:12.441Z,100210.00
2022-08-01T13:03:42.029Z,100222.00
2022-08-01T13:06:16.128Z,100216.00
2022-08-01T13:08:47.494Z,100209.00
2022-08-01T13:11:22.593Z,100211.00
2022-08-01T13:13:55.258Z,100206.00
2022-08-01T13:16:49.199Z,100196.00
2022-08-01T13:19:25.034Z,100200.00
2022-08-01T13:21:58.644Z,100207.00
2022-08-01T13:24:34.868Z,100208.00
2022-08-01T13:27:05.506Z,100205.00
2022-08-01T13:29:41.268Z,100217.00
2022-08-01T13:32:28.710Z,100222.00
2022-08-01T13:35:09.728Z,100231.00
2022-08-01T13:37:39.142Z,100209.00
2022-08-01T13:40:11.078Z,100204.00
2022-08-01T13:42:40.115Z,100210.00
2022-08-01T13:45:14.449Z,100213.00
2022-08-01T13:48:03.594Z,100213.00
2022-08-01T13:50:32.644Z,100218.00
2022-08-01T13:53:01.209Z,100199.00
2022-08-01T13:55:35.613Z,100206.00
2022-08-01T13:58:05.015Z,100196.00
2022-08-01T14:00:33.868Z,100210.00
2022-08-01T14:03:02.377Z,100190.00
2022-08-01T14:05:31.668Z,100208.00
2022-08-01T14:08:00.190Z,100211.00
2022-08-01T14:10:30.444Z,100205.00
2022-08-01T14:12:59.686Z,100208.00
2022-08-01T14:15:38.475Z,100216.00
2022-08-01T14:18:09.330Z,100204.00
2022-08-01T14:20:39.942Z,100230.00
2022-08-01T14:23:09.391Z,100236.00
2022-08-01T14:26:03.013Z,100227.00
2022-08-01T14:28:31.026Z,100231.00
2022-08-01T14:30:59.955Z,100230.00
2022-08-01T14:33:29.327Z,100221.00
2022-08-01T14:36:06.335Z,100222.00
2022-08-01T14:38:46.866Z,100236.00
2022-08-01T14:41:17.272Z,100231.00
2022-08-01T14:43:46.108Z,100233.00
2022-08-01T14:46:14.910Z,100238.00
2022-08-01T14:48:43.721Z,100235.00
2022-08-01T14:51:12.282Z,100234.00
2022-08-01T14:53:46.539Z,100234.00
2022-08-01T14:56:20.591Z,100233.00
2022-08-01T14:58:49.280Z,100225.00
2022-08-01T15:01:19.029Z,100235.00
2022-08-01T15:03:48.969Z,100230.00
2022-08-01T15:06:17.549Z,100225.00
2022-08-01T15:08:46.135Z,100233.00
2022-08-01T15:11:14.827Z,100224.00
2022-08-01T15:13:45.744Z,100243.00
2022-08-01T15:16:14.335Z,100234.00
2022-08-01T15:18:45.251Z,100236.00
2022-08-01T15:21:34.469Z,100234.00
2022-08-01T15:24:05.269Z,100245.00
2022-08-01T15:26:36.155Z,100245.00
2022-08-01T15:29:07.566Z,100247.00
2022-08-01T15:31:40.154Z,100248.00
2022-08-01T15:34:10.298Z,100244.00
2022-08-01T15:36:41.998Z,100244.00
2022-08-01T15:39:12.206Z,100245.00
2022-08-01T15:41:40.809Z,100250.00
2022-08-01T15:44:10.879Z,100251.00
2022-08-01T15:46:41.830Z,100255.00
2022-08-01T15:49:11.643Z,100254.00
2022-08-01T15:51:40.260Z,100249.00
2022-08-01T15:54:14.244Z,100257.00
2022-08-01T15:56:43.400Z,100255.00
2022-08-01T15:59:15.899Z,100256.00
2022-08-01T16:01:44.500Z,100247.00
2022-08-01T16:04:13.081Z,100250.00
2022-08-01T16:06:41.558Z,100243.00
2022-08-01T16:09:10.326Z,100249.00
2022-08-01T16:11:50.731Z,100256.00
2022-08-01T16:14:21.920Z,100254.00
2022-08-01T16:16:50.678Z,100247.00
2022-08-01T16:19:19.730Z,100247.00
2022-08-01T16:21:48.524Z,100239.00
2022-08-01T16:24:17.081Z,100242.00
2022-08-01T16:26:45.655Z,100240.00
2022-08-01T16:29:14.193Z,100246.00
2022-08-01T16:31:53.810Z,100238.00
2022-08-01T16:34:31.617Z,100238.00
2022-08-01T16:37:00.189Z,100242.00
2022-08-01T16:39:30.461Z,100247.00
2022-08-01T16:42:02.463Z,100238.00
2022-08-01T16:44:34.356Z,100238.00
2022-08-01T16:47:05.816Z,100239.00
2022-08-01T16:49:34.632Z,100243.00
2022-08-01T16:52:03.230Z,100243.00
2022-08-01T16:54:31.744Z,100241.00
2022-08-01T16:57:08.373Z,100248.00
2022-08-01T16:59:41.202Z,100249.00
2022-08-01T17:02:12.075Z,100251.00
2022-08-01T17:04:40.677Z,100250.00
2022-08-01T17:07:09.659Z,100250.00
2022-08-01T17:09:43.177Z,100249.00
2022-08-01T17:12:14.327Z,100255.00
2022-08-01T17:14:51.140Z,100251.00
2022-08-01T17:17:21.459Z,100250.00
2022-08-01T17:19:50.143Z,100260.00
2022-08-01T17:22:18.977Z,100250.00
2022-08-01T17:24:48.253Z,100254.00
2022-08-01T17:27:17.104Z,100256.00
2022-08-01T17:29:45.844Z,100253.00
2022-08-01T17:32:14.729Z,100257.00
2022-08-01T17:34:44.769Z,100265.00
2022-08-01T17:37:13.286Z,100259.00
2022-08-01T17:39:42.968Z,100263.00
2022-08-01T17:42:12.459Z,100270.00
2022-08-01T17:44:41.721Z,100276.00
2022-08-01T17:47:40.751Z,100282.00
2022-08-01T17:50:09.672Z,100274.00
2022-08-01T17:52:38.670Z,100281.00
2022-08-01T17:55:53.932Z,100286.00
2022-08-01T17:57:58.678Z,100281.00
2022-08-01T18:00:27.202Z,100288.00
2022-08-01T18:03:03.248Z,100289.00
2022-08-01T18:05:38.411Z,100293.00
2022-08-01T18:08:07.902Z,100290.00
2022-08-01T18:10:46.817Z,100288.00
2022-08-01T18:13:17.493Z,100291.00
2022-08-01T18:15:49.130Z,100290.00
2022-08-01T18:18:20.999Z,100296.00
2022-08-01T18:21:03.697Z,100288.00
2022-08-01T18:23:33.701Z,100299.00
2022-08-01T18:26:02.842Z,100299.00
2022-08-01T18:28:35.437Z,100304.00
2022-08-01T18:31:07.274Z,100302.00
2022-08-01T18:33:36.000Z,100299.00
2022-08-01T18:36:06.463Z,100302.00
2022-08-01T18:38:48.237Z,100303.00
2022-08-01T18:41:16.783Z,100311.00
2022-08-01T18:44:07.470Z,100303.00
2022-08-01T18:46:37.542Z,100312.00
2022-08-01T18:49:07.881Z,100311.00
2022-08-01T18:51:43.826Z,100316.00
2022-08-01T18:54:14.989Z,100319.00
2022-08-01T18:56:52.111Z,100323.00
2022-08-01T18:59:24.019Z,100335.00
2022-08-01T19:01:55.469Z,100324.00
2022-08-01T19:04:27.944Z,100334.00
2022-08-01T19:07:00.235Z,100333.00
2022-08-01T19:09:31.766Z,100338.00
2022-08-01T19:12:00.371Z,100338.00
2022-08-01T19:14:28.969Z,100336.00
2022-08-01T19:16:57.590Z,100342.00
2022-08-01T19:19:28.298Z,100352.00
2022-08-01T19:21:58.404Z,100349.00
2022-08-01T19:24:27.291Z,100356.00
2022-08-01T19:26:58.049Z,100366.00
2022-08-01T19:29:35.596Z,100361.00
2022-08-01T19:32:06.727Z,100367.00
2022-08-01T19:34:37.873Z,100363.00
2022-08-01T19:37:08.871Z,100363.00
2022-08-01T19:39:37.898Z,100371.00
2022-08-01T19:42:06.896Z,100370.00
2022-08-01T19:44:37.304Z,100373.00
2022-08-01T19:47:06.462Z,100380.00
2022-08-01T19:49:37.497Z,100381.00
2022-08-01T19:52:09.021Z,100386.00
2022-08-01T19:54:42.289Z,100391.00
2022-08-01T19:57:12.873Z,100386.00
2022-08-01T19:59:42.405Z,100390.00
2022-08-01T20:02:11.257Z,100394.00
2022-08-01T20:04:40.206Z,100388.00
2022-08-01T20:07:11.109Z,100393.00
2022-08-01T20:09:41.909Z,100398.00
2022-08-01T20:12:11.153Z,100399.00
2022-08-01T20:14:41.035Z,100407.00
2022-08-01T20:17:10.109Z,100407.00
2022-08-01T20:19:38.939Z,100414.00
2022-08-01T20:22:14.359Z,100404.00
2022-08-01T20:24:46.143Z,100412.00
2022-08-01T20:27:18.653Z,100417.00
2022-08-01T20:29:48.594Z,100410.00
2022-08-01T20:32:18.039Z,100423.00
2022-08-01T20:34:46.899Z,100423.00
2022-08-01T20:38:06.176Z,100426.00
2022-08-01T20:40:13.239Z,100425.00
2022-08-01T20:42:52.474Z,100425.00
2022-08-01T20:45:22.735Z,100426.00
2022-08-01T20:47:53.995Z,100426.00
2022-08-01T20:50:54.055Z,100432.00
2022-08-01T20:53:26.219Z,100436.00
2022-08-01T20:56:00.694Z,100432.00
2022-08-01T20:58:38.246Z,100438.00
2022-08-01T21:01:09.650Z,100444.00
2022-08-01T21:03:46.723Z,100434.00
2022-08-01T21:06:18.720Z,100445.00
2022-08-01T21:08:50.020Z,100449.00
2022-08-01T21:11:21.930Z,100441.00
2022-08-01T21:13:52.081Z,100439.00
2022-08-01T21:16:27.945Z,100439.00
2022-08-01T21:21:57.443Z,100438.00
2022-08-01T21:25:19.984Z,100439.00
2022-08-01T21:27:50.644Z,100447.00
2022-08-01T21:30:20.109Z,100445.00
2022-08-01T21:32:50.146Z,100450.00
2022-08-01T21:35:22.280Z,100447.00
2022-08-01T21:37:52.564Z,100449.00
2022-08-01T21:40:24.911Z,100447.00
2022-08-01T21:42:55.416Z,100448.00
2022-08-01T21:45:27.186Z,100451.00
2022-08-01T21:47:56.556Z,100456.00
2022-08-01T21:50:25.445Z,100459.00
2022-08-01T21:53:05.791Z,100454.00
2022-08-01T21:55:51.907Z,100461.00
2022-08-01T21:58:32.463Z,100462.00
2022-08-01T22:01:08.232Z,100467.00
2022-08-01T22:03:46.795Z,100467.00
2022-08-01T22:06:17.085Z,100473.00
2022-08-01T22:08:51.202Z,100470.00
2022-08-01T22:11:24.492Z,100463.00
2022-08-01T22:13:56.332Z,100468.00
2022-08-01T22:16:26.614Z,100464.00
2022-08-01T22:18:55.786Z,100476.00
2022-08-01T22:21:27.398Z,100478.00
2022-08-01T22:23:56.041Z,100476.00
2022-08-01T22:26:29.311Z,100477.00
2022-08-01T22:28:59.761Z,100473.00
2022-08-01T22:31:29.112Z,100477.00
2022-08-01T22:33:57.861Z,100481.00
2022-08-01T22:36:26.666Z,100471.00
2022-08-01T22:38:55.276Z,100475.00
2022-08-01T22:41:31.267Z,100483.00
2022-08-01T22:44:27.519Z,100484.00
2022-08-01T22:47:08.178Z,100484.00
2022-08-01T22:49:39.161Z,100477.00
2022-08-01T22:52:17.258Z,100479.00
2022-08-01T22:54:52.084Z,100486.00
2022-08-01T22:57:28.452Z,100484.00
2022-08-01T23:00:02.808Z,100486.00
2022-08-01T23:02:34.375Z,100486.00
2022-08-01T23:05:05.184Z,100488.00
2022-08-01T23:07:35.990Z,100496.00
2022-08-01T23:10:07.706Z,100491.00
2022-08-01T23:12:40.109Z,100503.00
2022-08-01T23:15:10.427Z,100497.00
2022-08-01T23:17:39.522Z,100503.00
2022-08-01T23:20:09.545Z,100506.00
2022-08-01T23:22:39.542Z,100504.00
2022-08-01T23:25:13.697Z,100514.00
2022-08-01T23:28:04.118Z,100510.00
2022-08-01T23:30:35.913Z,100505.00
2022-08-01T23:33:05.205Z,100497.00
2022-08-01T23:35:35.489Z,100499.00
2022-08-01T23:38:07.867Z,100496.00
2022-08-01T23:40:37.018Z,100488.00
2022-08-01T23:43:14.897Z,100493.00
2022-08-01T23:46:04.532Z,100492.00
2022-08-01T23:48:34.828Z,100485.00
2022-08-01T23:51:04.260Z,100480.00
2022-08-01T23:53:33.815Z,100484.00
2022-08-01T23:56:05.237Z,100480.00
2022-08-01T23:58:35.677Z,100473.00
